Time;durP1;ratioP1;P1;durP2;ratioP2;P2;SDS_P1;SDS_P2;PMS_P1;PMS_P2;Temp;Humidity;BMP_temperature;BMP_pressure;BME280_temperature;BME280_humidity;BME280_pressure;Samples;Min_cycle;Max_cycle;Signal;HPM_P1;HPM_P2
2022/03/09 00:00:41;;;;;;;205.10;82.10;;;;;;;-2.38;72.80;99360.16;107913;1282;22776;-73
2022/03/09 00:03:08;;;;;;;238.60;93.40;;;;;;;-2.34;72.55;99357.60;107916;1282;22538;-74
2022/03/09 00:05:35;;;;;;;213.40;83.70;;;;;;;-2.25;72.34;99363.38;107917;1282;22605;-73
2022/03/09 00:08:03;;;;;;;192.10;80.50;;;;;;;-2.18;72.72;99362.17;107915;1282;22537;-74
2022/03/09 00:10:30;;;;;;;189.20;76.60;;;;;;;-2.16;73.81;99365.92;107910;1282;22544;-73
2022/03/09 00:12:57;;;;;;;196.30;79.80;;;;;;;-2.19;73.86;99366.61;107935;1282;22568;-74
2022/03/09 00:15:24;;;;;;;197.20;82.50;;;;;;;-2.24;73.54;99362.52;107926;1282;22571;-73
2022/03/09 00:17:51;;;;;;;209.60;81.50;;;;;;;-2.26;73.39;99361.34;107849;1282;25502;-72
2022/03/09 00:20:18;;;;;;;202.60;81.00;;;;;;;-2.26;73.12;99358.10;107618;1282;22718;-72
2022/03/09 00:22:45;;;;;;;196.10;81.40;;;;;;;-2.25;73.08;99355.54;107643;1282;22689;-72
2022/03/09 00:25:12;;;;;;;197.20;80.00;;;;;;;-2.21;73.27;99355.35;107626;1282;24340;-73
2022/03/09 00:27:39;;;;;;;202.90;81.60;;;;;;;-2.17;73.01;99354.16;107621;1282;22709;-72
2022/03/09 00:30:11;;;;;;;200.20;81.50;;;;;;;-2.13;73.13;99357.03;107657;1282;22862;-73
2022/03/09 00:32:39;;;;;;;175.00;76.40;;;;;;;-2.11;73.59;99357.88;107680;1282;22634;-72
2022/03/09 00:35:08;;;;;;;155.00;67.10;;;;;;;-2.10;74.30;99355.48;107678;1280;25296;-76
2022/03/09 00:37:35;;;;;;;182.90;77.50;;;;;;;-2.13;74.34;99350.21;107662;1282;22595;-75
2022/03/09 00:40:04;;;;;;;188.10;77.90;;;;;;;-2.15;74.30;99351.25;107676;1281;22807;-73
2022/03/09 00:42:35;;;;;;;177.40;77.60;;;;;;;-2.15;74.19;99357.23;107660;1282;22575;-73
2022/03/09 00:45:03;;;;;;;194.10;77.60;;;;;;;-2.14;73.98;99354.81;107643;1282;22541;-72
2022/03/09 00:47:30;;;;;;;178.40;72.60;;;;;;;-2.12;74.07;99354.80;107636;1282;25512;-73
2022/03/09 00:49:57;;;;;;;170.10;71.20;;;;;;;-2.08;73.72;99355.32;107650;1282;22708;-72
2022/03/09 00:52:24;;;;;;;157.20;69.80;;;;;;;-1.99;73.59;99353.08;107666;1282;24241;-72
2022/03/09 00:54:51;;;;;;;160.40;68.90;;;;;;;-1.91;73.87;99353.21;107647;1282;22552;-73
2022/03/09 00:57:18;;;;;;;138.80;62.20;;;;;;;-1.83;74.13;99355.23;107657;1282;23210;-72
2022/03/09 00:59:45;;;;;;;152.70;67.20;;;;;;;-1.80;74.33;99359.14;107649;1282;22579;-72
2022/03/09 01:02:12;;;;;;;157.60;64.90;;;;;;;-1.75;74.31;99359.13;107645;1281;22601;-75
2022/03/09 01:04:40;;;;;;;141.00;63.60;;;;;;;-1.71;74.38;99357.05;107626;1281;22711;-72
2022/03/09 01:07:07;;;;;;;140.60;60.20;;;;;;;-1.67;73.97;99353.79;107639;1281;22653;-73
2022/03/09 01:09:34;;;;;;;138.90;59.50;;;;;;;-1.63;73.92;99348.15;107638;1282;22663;-72
2022/03/09 01:12:02;;;;;;;134.10;57.70;;;;;;;-1.61;73.89;99341.80;107618;1282;22643;-74
2022/03/09 01:14:29;;;;;;;136.40;60.40;;;;;;;-1.57;73.65;99338.71;107618;1282;22568;-72
2022/03/09 01:16:56;;;;;;;143.90;61.40;;;;;;;-1.54;73.20;99329.98;107630;1281;22647;-72
2022/03/09 01:19:23;;;;;;;129.50;57.20;;;;;;;-1.50;73.11;99322.10;107633;1282;22583;-72
2022/03/09 01:21:50;;;;;;;138.70;62.90;;;;;;;-1.47;73.75;99326.36;107639;1282;22563;-72
2022/03/09 01:24:17;;;;;;;152.40;65.70;;;;;;;-1.48;74.27;99324.65;107657;1282;22560;-72
2022/03/09 01:26:44;;;;;;;162.70;71.40;;;;;;;-1.52;74.49;99322.63;107631;1282;22642;-71
2022/03/09 01:29:11;;;;;;;173.30;74.30;;;;;;;-1.57;74.43;99319.58;107622;1282;22672;-72
2022/03/09 01:31:38;;;;;;;188.20;75.70;;;;;;;-1.61;74.20;99318.23;107601;1282;22665;-72
2022/03/09 01:34:05;;;;;;;183.60;76.00;;;;;;;-1.65;74.09;99319.98;107640;1282;22737;-74
2022/03/09 01:36:32;;;;;;;175.50;74.20;;;;;;;-1.69;73.95;99318.27;107624;1282;22715;-74
2022/03/09 01:38:59;;;;;;;166.70;72.60;;;;;;;-1.67;73.86;99319.97;107637;1282;22730;-75
2022/03/09 01:41:26;;;;;;;162.50;75.20;;;;;;;-1.66;74.29;99319.63;107618;1282;22629;-72
2022/03/09 01:44:13;;;;;;;157.90;67.50;;;;;;;-1.64;74.77;99314.67;107480;1282;223177;-72
2022/03/09 01:46:41;;;;;;;159.00;66.50;;;;;;;-1.65;74.85;99308.02;107627;1282;22538;-72
2022/03/09 01:49:09;;;;;;;144.20;64.10;;;;;;;-1.65;74.81;99307.50;107918;1281;22597;-72
2022/03/09 01:51:39;;;;;;;138.70;60.60;;;;;;;-1.64;74.60;99306.98;107621;1282;23184;-72
2022/03/09 01:54:07;;;;;;;126.20;56.70;;;;;;;-1.64;74.32;99304.08;107613;1282;23268;-72
2022/03/09 01:56:35;;;;;;;133.70;58.30;;;;;;;-1.65;74.15;99305.45;107693;1281;22564;-72
2022/03/09 01:59:05;;;;;;;134.30;58.10;;;;;;;-1.65;74.09;99299.64;107657;1282;22863;-73
2022/03/09 02:01:32;;;;;;;141.50;61.60;;;;;;;-1.60;74.08;99298.41;107611;1282;22555;-73
2022/03/09 02:04:00;;;;;;;129.50;56.90;;;;;;;-1.56;74.32;99293.95;107632;1282;22622;-73
2022/03/09 02:06:27;;;;;;;116.50;50.90;;;;;;;-1.53;74.94;99292.73;107618;1282;25382;-72
2022/03/09 02:11:40;;;;;;;124.50;54.20;;;;;;;-1.53;74.77;99292.92;107621;1282;23369;-73
2022/03/09 02:14:29;;;;;;;119.40;54.30;;;;;;;-1.53;74.50;99296.16;107623;1282;22734;-74
2022/03/09 02:16:57;;;;;;;134.10;56.30;;;;;;;-1.53;74.16;99299.40;107643;1281;25213;-73
2022/03/09 02:19:25;;;;;;;135.20;58.20;;;;;;;-1.55;74.02;99299.08;107594;1281;23140;-72
2022/03/09 02:21:59;;;;;;;130.60;56.00;;;;;;;-1.55;74.10;99299.25;107656;1282;22639;-73
2022/03/09 02:24:26;;;;;;;117.80;51.80;;;;;;;-1.50;74.07;99296.81;107646;1282;22541;-72
2022/03/09 02:26:53;;;;;;;112.10;50.80;;;;;;;-1.45;74.42;99299.52;107615;1282;24283;-72
2022/03/09 02:29:20;;;;;;;115.50;48.20;;;;;;;-1.42;74.95;99297.27;107662;1282;22709;-73
2022/03/09 02:31:47;;;;;;;118.20;51.60;;;;;;;-1.41;74.99;99298.63;107698;1282;22746;-73
2022/03/09 02:34:14;;;;;;;127.30;54.30;;;;;;;-1.42;74.72;99297.95;107707;1282;22732;-73
2022/03/09 02:36:41;;;;;;;121.00;51.60;;;;;;;-1.43;74.37;99297.11;107691;1282;24311;-73
2022/03/09 02:39:08;;;;;;;121.10;50.80;;;;;;;-1.44;74.35;99292.17;107666;1282;22560;-77
2022/03/09 02:41:35;;;;;;;120.10;49.20;;;;;;;-1.43;73.96;99289.96;107639;1282;22546;-72
2022/03/09 02:44:03;;;;;;;114.90;49.90;;;;;;;-1.44;73.94;99289.95;107549;1282;24264;-72
2022/03/09 02:46:30;;;;;;;123.20;51.40;;;;;;;-1.44;73.71;99290.98;107654;1281;22550;-74
2022/03/09 02:48:57;;;;;;;113.00;50.60;;;;;;;-1.39;73.70;99287.18;107674;1282;22628;-73
2022/03/09 02:51:24;;;;;;;113.30;49.60;;;;;;;-1.36;73.92;99285.45;107621;1282;25346;-72
2022/03/09 02:53:51;;;;;;;119.00;48.10;;;;;;;-1.36;74.48;99286.83;107604;1282;22556;-72
2022/03/09 02:56:18;;;;;;;111.90;48.20;;;;;;;-1.39;74.51;99290.42;107657;1282;23412;-73
2022/03/09 02:58:45;;;;;;;114.70;49.80;;;;;;;-1.41;74.33;99292.48;107638;1282;22560;-72
2022/03/09 03:01:14;;;;;;;113.60;49.60;;;;;;;-1.44;74.14;99294.05;107644;1282;22693;-72
2022/03/09 03:03:42;;;;;;;117.70;50.70;;;;;;;-1.47;73.86;99293.39;107683;1282;25668;-74
2022/03/09 03:06:11;;;;;;;122.20;53.10;;;;;;;-1.49;73.92;99293.90;107599;1282;23112;-73
2022/03/09 03:08:38;;;;;;;121.50;49.90;;;;;;;-1.50;73.99;99290.15;107632;1282;22765;-74
2022/03/09 03:11:09;;;;;;;113.60;48.30;;;;;;;-1.50;74.07;99291.69;107648;1282;22542;-73
2022/03/09 03:13:39;;;;;;;105.30;50.20;;;;;;;-1.48;73.97;99288.44;107635;1282;22630;-74
2022/03/09 03:16:08;;;;;;;108.70;50.70;;;;;;;-1.42;73.60;99283.27;107649;1281;23869;-73
2022/03/09 03:18:35;;;;;;;103.00;47.90;;;;;;;-1.35;73.76;99277.95;107613;1282;22570;-73
2022/03/09 03:21:03;;;;;;;102.50;44.00;;;;;;;-1.32;74.12;99278.06;107633;1282;22641;-73
2022/03/09 03:23:33;;;;;;;99.40;45.00;;;;;;;-1.30;74.41;99280.79;107828;1282;22572;-72
2022/03/09 03:26:01;;;;;;;107.60;45.10;;;;;;;-1.28;74.31;99282.49;107640;1282;22554;-73
2022/03/09 03:28:28;;;;;;;104.20;46.30;;;;;;;-1.27;74.07;99287.10;107638;1282;25482;-72
2022/03/09 03:30:55;;;;;;;109.70;47.50;;;;;;;-1.27;74.04;99285.39;107630;1282;24278;-73
2022/03/09 03:33:23;;;;;;;100.70;45.70;;;;;;;-1.26;73.94;99283.33;107622;1282;22632;-73
2022/03/09 03:35:51;;;;;;;95.00;41.80;;;;;;;-1.25;73.62;99284.52;107655;1282;22708;-73
2022/03/09 03:38:19;;;;;;;87.20;42.40;;;;;;;-1.25;73.43;99284.67;107657;1282;22623;-73
2022/03/09 03:40:46;;;;;;;95.60;44.60;;;;;;;-1.19;73.56;99288.23;107609;1282;22648;-73
2022/03/09 03:43:13;;;;;;;106.10;49.20;;;;;;;-1.16;73.96;99290.94;107617;1282;22564;-73
2022/03/09 03:45:40;;;;;;;111.10;49.90;;;;;;;-1.17;74.49;99290.63;107638;1282;22575;-72
2022/03/09 03:48:07;;;;;;;115.20;52.30;;;;;;;-1.20;74.58;99291.99;107632;1282;22560;-72
2022/03/09 03:50:35;;;;;;;127.40;53.90;;;;;;;-1.23;74.50;99292.36;107649;1281;22541;-73
2022/03/09 03:53:02;;;;;;;122.60;54.40;;;;;;;-1.25;74.26;99291.86;107659;1282;22682;-73
2022/03/09 03:55:29;;;;;;;123.40;55.20;;;;;;;-1.27;74.17;99292.23;107604;1282;24272;-73
2022/03/09 03:57:56;;;;;;;127.20;56.20;;;;;;;-1.27;73.95;99294.80;107614;1281;25550;-72
2022/03/09 04:00:23;;;;;;;126.50;56.90;;;;;;;-1.29;73.95;99298.73;107619;1282;23561;-73
2022/03/09 04:02:51;;;;;;;126.60;56.40;;;;;;;-1.28;73.83;99297.17;107645;1282;22611;-73
2022/03/09 04:05:18;;;;;;;126.30;58.10;;;;;;;-1.22;73.72;99299.19;107630;1281;22558;-73
2022/03/09 04:07:46;;;;;;;109.70;51.00;;;;;;;-1.18;74.04;99299.84;107597;1282;22739;-72
2022/03/09 04:10:14;;;;;;;108.20;51.50;;;;;;;-1.14;74.60;99299.46;107953;1282;22777;-73
2022/03/09 04:12:41;;;;;;;123.80;56.20;;;;;;;-1.15;74.85;99294.34;107629;1282;25830;-73
2022/03/09 04:15:09;;;;;;;119.50;55.60;;;;;;;-1.13;74.62;99296.39;107652;1281;24233;-73
2022/03/09 04:17:43;;;;;;;131.70;59.90;;;;;;;-1.14;74.48;99293.48;107624;1282;22729;-73
2022/03/09 04:20:13;;;;;;;143.90;63.80;;;;;;;-1.13;74.27;99292.45;107887;1282;22635;-74
2022/03/09 04:22:41;;;;;;;134.40;61.10;;;;;;;-1.14;74.01;99294.85;107928;1282;22563;-72
2022/03/09 04:25:09;;;;;;;126.90;57.60;;;;;;;-1.16;73.85;99300.67;107902;1282;22538;-72
2022/03/09 04:27:37;;;;;;;123.10;54.30;;;;;;;-1.18;73.91;99302.93;107928;1282;22559;-73
2022/03/09 04:30:05;;;;;;;96.80;46.90;;;;;;;-1.14;73.92;99300.15;107953;1282;22549;-73
2022/03/09 04:32:34;;;;;;;107.80;49.40;;;;;;;-1.11;74.35;99303.05;107937;1282;25495;-73
2022/03/09 04:35:03;;;;;;;108.80;47.20;;;;;;;-1.10;74.90;99298.93;107913;1282;24231;-72
2022/03/09 04:37:30;;;;;;;106.80;49.10;;;;;;;-1.10;75.01;99298.08;107922;1282;22541;-73
2022/03/09 04:39:58;;;;;;;109.40;49.40;;;;;;;-1.11;74.73;99303.39;107922;1282;22640;-74
2022/03/09 04:42:26;;;;;;;112.20;48.20;;;;;;;-1.11;74.38;99301.50;107933;1282;24316;-73
2022/03/09 04:44:54;;;;;;;111.50;47.30;;;;;;;-1.11;74.22;99304.41;107957;1282;22558;-73
2022/03/09 04:47:22;;;;;;;113.50;49.60;;;;;;;-1.10;74.10;99300.48;107957;1281;22771;-75
2022/03/09 04:49:51;;;;;;;104.10;45.80;;;;;;;-1.10;73.85;99299.61;107917;1281;22562;-72
2022/03/09 04:52:19;;;;;;;100.30;45.40;;;;;;;-1.08;73.71;99304.56;107922;1282;23120;-73
2022/03/09 04:54:46;;;;;;;100.20;47.40;;;;;;;-1.01;73.82;99305.36;107951;1282;22572;-73
2022/03/09 04:57:14;;;;;;;104.70;47.30;;;;;;;-0.98;74.28;99308.23;107933;1282;22560;-73
2022/03/09 04:59:41;;;;;;;102.90;44.30;;;;;;;-0.96;74.59;99309.58;107938;1282;22635;-73
2022/03/09 05:02:09;;;;;;;102.20;44.80;;;;;;;-0.96;74.71;99309.58;107959;1282;22547;-73
2022/03/09 05:04:36;;;;;;;104.00;45.30;;;;;;;-0.94;74.57;99307.01;107949;1282;22598;-73
2022/03/09 05:07:04;;;;;;;91.10;44.90;;;;;;;-0.93;74.40;99305.81;107966;1282;22562;-73
2022/03/09 05:09:32;;;;;;;97.70;43.50;;;;;;;-0.91;74.01;99303.40;107929;1282;22636;-72
2022/03/09 05:12:00;;;;;;;100.10;45.80;;;;;;;-0.90;73.88;99300.15;107973;1282;24249;-73
2022/03/09 05:14:27;;;;;;;92.30;43.90;;;;;;;-0.91;73.79;99303.06;107928;1282;22891;-74
2022/03/09 05:16:54;;;;;;;90.70;43.80;;;;;;;-0.89;73.51;99303.73;107956;1282;22631;-72
2022/03/09 05:19:22;;;;;;;89.00;42.20;;;;;;;-0.85;73.63;99299.75;107930;1282;22709;-72
2022/03/09 05:21:49;;;;;;;89.10;41.50;;;;;;;-0.81;74.09;99303.98;107641;1282;22564;-73
2022/03/09 05:24:16;;;;;;;82.00;38.30;;;;;;;-0.79;74.70;99305.85;107634;1282;22866;-73
2022/03/09 05:26:46;;;;;;;82.50;38.70;;;;;;;-0.79;74.67;99302.08;107643;1282;22535;-73
2022/03/09 05:29:14;;;;;;;83.10;39.90;;;;;;;-0.79;74.45;99306.02;107606;1282;22552;-72
2022/03/09 05:31:44;;;;;;;78.00;37.50;;;;;;;-0.79;74.36;99304.98;107652;1282;25474;-73
2022/03/09 05:34:12;;;;;;;89.10;38.50;;;;;;;-0.78;74.15;99309.94;107677;1282;22678;-73
2022/03/09 05:36:40;;;;;;;83.80;39.90;;;;;;;-0.76;74.02;99310.95;107657;1282;22670;-73
2022/03/09 05:39:07;;;;;;;79.10;37.60;;;;;;;-0.75;73.78;99306.84;107688;1282;22592;-74
2022/03/09 05:41:34;;;;;;;94.40;41.10;;;;;;;-0.75;73.74;99305.48;107641;1282;22775;-73
2022/03/09 05:44:02;;;;;;;87.10;40.90;;;;;;;-0.68;73.85;99308.48;107666;1282;22541;-73
2022/03/09 05:46:30;;;;;;;81.20;38.90;;;;;;;-0.62;74.22;99309.46;107642;1282;22669;-72
2022/03/09 05:48:57;;;;;;;89.80;40.70;;;;;;;-0.60;74.68;99309.77;107673;1281;24273;-73
2022/03/09 05:51:24;;;;;;;91.00;43.50;;;;;;;-0.59;74.74;99311.98;107699;1281;22556;-72
2022/03/09 05:53:51;;;;;;;90.60;43.10;;;;;;;-0.59;74.64;99316.09;107680;1282;23535;-73
2022/03/09 05:56:18;;;;;;;101.50;44.70;;;;;;;-0.60;74.36;99318.84;107671;1281;23779;-74
2022/03/09 05:58:46;;;;;;;108.10;47.60;;;;;;;-0.59;74.21;99317.81;107691;1282;22642;-72
2022/03/09 06:01:12;;;;;;;97.70;44.60;;;;;;;-0.59;74.06;99320.71;107658;1282;22731;-72
2022/03/09 06:03:40;;;;;;;102.30;43.90;;;;;;;-0.59;73.92;99318.48;107656;1282;22552;-73
2022/03/09 06:06:07;;;;;;;89.90;43.20;;;;;;;-0.58;73.86;99320.38;107675;1282;22585;-73
2022/03/09 06:08:34;;;;;;;90.20;43.00;;;;;;;-0.51;73.79;99323.89;107719;1282;24085;-73
2022/03/09 06:11:01;;;;;;;89.70;43.60;;;;;;;-0.43;74.19;99321.24;107646;1281;22690;-73
2022/03/09 06:13:28;;;;;;;88.70;41.10;;;;;;;-0.37;74.62;99322.05;107615;1282;22738;-73
2022/03/09 06:15:55;;;;;;;91.60;41.90;;;;;;;-0.33;74.83;99324.22;107662;1282;22581;-73
2022/03/09 06:18:21;;;;;;;92.30;43.40;;;;;;;-0.28;74.55;99321.78;107665;1282;22756;-73
2022/03/09 06:20:48;;;;;;;93.90;44.80;;;;;;;-0.25;74.28;99316.95;107654;1282;22941;-73
2022/03/09 06:23:17;;;;;;;102.60;44.90;;;;;;;-0.23;74.09;99314.02;107656;1282;22560;-73
2022/03/09 06:25:44;;;;;;;100.70;45.30;;;;;;;-0.18;73.99;99310.20;107652;1282;22712;-74
2022/03/09 06:28:11;;;;;;;103.60;46.00;;;;;;;-0.15;73.88;99312.89;107646;1282;25386;-73
2022/03/09 06:30:38;;;;;;;104.00;45.40;;;;;;;-0.10;73.69;99315.92;107632;1282;22634;-74
2022/03/09 06:33:06;;;;;;;105.60;46.80;;;;;;;0.01;73.67;99319.55;107712;1282;22538;-73
2022/03/09 06:35:33;;;;;;;97.00;44.50;;;;;;;0.11;74.21;99319.61;107526;1282;22581;-73
2022/03/09 06:38:00;;;;;;;105.20;46.60;;;;;;;0.15;74.56;99321.45;107642;1282;22791;-73
2022/03/09 06:40:27;;;;;;;108.30;48.30;;;;;;;0.20;74.48;99327.20;107660;1281;22591;-73
2022/03/09 06:42:54;;;;;;;112.20;49.00;;;;;;;0.24;74.26;99324.77;107660;1282;22571;-73
2022/03/09 06:45:22;;;;;;;106.30;48.00;;;;;;;0.30;73.84;99325.88;107682;1282;22708;-73
2022/03/09 06:47:49;;;;;;;111.90;47.00;;;;;;;0.35;73.58;99326.48;107663;1281;23548;-73
2022/03/09 06:50:16;;;;;;;106.90;48.60;;;;;;;0.43;73.37;99326.41;107607;1282;22745;-74
2022/03/09 06:52:43;;;;;;;93.10;43.50;;;;;;;0.48;73.27;99322.73;107653;1282;22603;-74
2022/03/09 06:55:12;;;;;;;102.20;44.60;;;;;;;0.52;73.12;99320.79;107641;1282;22710;-73
2022/03/09 06:57:40;;;;;;;85.20;41.50;;;;;;;0.59;72.87;99318.30;107678;1282;22541;-73
2022/03/09 07:00:14;;;;;;;82.40;41.50;;;;;;;0.68;73.04;99319.54;107661;1282;22579;-73
2022/03/09 07:02:42;;;;;;;82.20;38.40;;;;;;;0.74;73.52;99322.53;107536;1282;23136;-73
2022/03/09 07:05:10;;;;;;;86.10;41.90;;;;;;;0.80;73.66;99329.46;107642;1282;23175;-72
2022/03/09 07:07:38;;;;;;;88.90;42.90;;;;;;;0.86;73.41;99329.90;107617;1282;22538;-75
2022/03/09 07:10:10;;;;;;;85.20;42.10;;;;;;;0.91;73.11;99326.73;107667;1282;22565;-74
2022/03/09 07:12:39;;;;;;;93.50;43.40;;;;;;;0.95;72.68;99328.74;107627;1280;22544;-75
2022/03/09 07:15:07;;;;;;;93.30;41.20;;;;;;;0.98;72.53;99325.25;107649;1282;22582;-74
2022/03/09 07:17:34;;;;;;;84.90;41.90;;;;;;;0.99;72.22;99324.54;107705;1282;22690;-74
2022/03/09 07:20:01;;;;;;;92.70;42.90;;;;;;;1.04;72.02;99321.73;107647;1282;22553;-73
2022/03/09 07:22:28;;;;;;;86.90;40.60;;;;;;;1.11;72.09;99317.67;107683;1282;22560;-73
2022/03/09 07:24:55;;;;;;;88.00;42.00;;;;;;;1.18;71.92;99318.58;107672;1282;22636;-74
2022/03/09 07:27:22;;;;;;;83.00;39.50;;;;;;;1.25;71.65;99320.18;107652;1282;22641;-75
2022/03/09 07:29:49;;;;;;;78.90;38.50;;;;;;;1.39;71.94;99319.44;107650;1282;25346;-76
2022/03/09 07:32:16;;;;;;;78.80;36.40;;;;;;;1.53;72.40;99317.45;107665;1282;25418;-73
2022/03/09 07:34:43;;;;;;;79.20;37.50;;;;;;;1.63;72.42;99316.06;107707;1282;22529;-74
2022/03/09 07:37:10;;;;;;;72.40;37.50;;;;;;;1.68;72.19;99321.65;107689;1282;22674;-75
2022/03/09 07:39:37;;;;;;;83.50;39.50;;;;;;;1.77;71.80;99324.05;107703;1282;22588;-75
2022/03/09 07:42:05;;;;;;;85.80;39.60;;;;;;;1.86;71.24;99330.94;107668;1282;22591;-73
2022/03/09 07:44:32;;;;;;;73.80;39.40;;;;;;;1.92;70.97;99333.39;107661;1282;22555;-75
2022/03/09 07:46:59;;;;;;;76.90;37.40;;;;;;;1.98;70.80;99333.10;107704;1282;22665;-76
2022/03/09 07:49:26;;;;;;;81.90;39.80;;;;;;;2.05;70.63;99336.05;107711;1282;25279;-77
2022/03/09 07:51:54;;;;;;;64.30;34.20;;;;;;;2.16;70.44;99334.80;107695;1282;22773;-76
2022/03/09 07:54:21;;;;;;;57.70;30.60;;;;;;;2.26;70.23;99327.73;107650;1282;22566;-74
2022/03/09 07:56:49;;;;;;;65.00;34.30;;;;;;;2.36;70.13;99324.27;107643;1282;23437;-74
2022/03/09 07:59:16;;;;;;;68.50;34.00;;;;;;;2.45;69.78;99322.17;107690;1282;25566;-76
2022/03/09 08:01:44;;;;;;;58.60;31.90;;;;;;;2.56;69.64;99320.73;107660;1282;22640;-75
2022/03/09 08:04:11;;;;;;;54.80;30.50;;;;;;;2.64;69.48;99322.11;107683;1282;22652;-74
2022/03/09 08:06:38;;;;;;;54.70;28.90;;;;;;;2.73;69.41;99322.07;107639;1281;23395;-74
2022/03/09 08:09:05;;;;;;;47.60;28.00;;;;;;;2.80;69.07;99322.75;107691;1282;22566;-74
2022/03/09 08:11:32;;;;;;;59.10;30.40;;;;;;;2.88;69.10;99329.98;107671;1282;22663;-75
2022/03/09 08:13:59;;;;;;;51.80;28.90;;;;;;;2.97;68.91;99332.00;107695;1282;22706;-74
2022/03/09 08:16:26;;;;;;;55.80;28.80;;;;;;;3.05;68.56;99340.95;107725;1282;22579;-75
2022/03/09 08:18:53;;;;;;;59.70;31.10;;;;;;;3.11;68.40;99340.80;107661;1282;25521;-73
2022/03/09 08:21:20;;;;;;;57.90;30.70;;;;;;;3.18;68.43;99342.01;107651;1282;22552;-73
2022/03/09 08:23:47;;;;;;;58.40;31.00;;;;;;;3.29;67.99;99340.70;107652;1282;22570;-76
2022/03/09 08:26:15;;;;;;;59.80;29.80;;;;;;;3.37;67.87;99338.27;107684;1282;22547;-73
2022/03/09 08:28:42;;;;;;;62.90;31.20;;;;;;;3.47;67.69;99335.44;107698;1282;22549;-73
2022/03/09 08:31:09;;;;;;;59.50;28.60;;;;;;;3.55;67.65;99335.06;107693;1282;23164;-75
2022/03/09 08:33:37;;;;;;;54.80;28.80;;;;;;;3.63;67.50;99336.56;107628;1282;22661;-74
2022/03/09 08:36:04;;;;;;;54.30;29.10;;;;;;;3.71;67.19;99334.47;108028;1282;22675;-75
2022/03/09 08:38:31;;;;;;;51.60;28.30;;;;;;;3.84;67.58;99334.81;107656;1282;22560;-74
2022/03/09 08:40:58;;;;;;;51.20;27.50;;;;;;;3.97;67.99;99341.86;107707;1282;22543;-75
2022/03/09 08:43:25;;;;;;;55.60;29.00;;;;;;;4.05;68.11;99340.27;107720;1282;22629;-74
2022/03/09 08:45:52;;;;;;;54.60;29.00;;;;;;;4.13;67.44;99338.82;107640;1282;22700;-74
2022/03/09 08:48:20;;;;;;;50.30;27.40;;;;;;;4.25;67.21;99336.23;107664;1282;26635;-73
2022/03/09 08:50:47;;;;;;;47.30;26.10;;;;;;;4.36;67.05;99330.60;107682;1282;22528;-73
2022/03/09 08:53:16;;;;;;;49.90;27.80;;;;;;;4.48;66.36;99333.69;107698;1282;22776;-74
2022/03/09 08:55:43;;;;;;;49.50;28.00;;;;;;;4.56;65.66;99329.31;107651;1282;22626;-73
2022/03/09 08:58:10;;;;;;;64.30;29.80;;;;;;;4.70;65.74;99328.39;107694;1282;22621;-73
2022/03/09 09:00:37;;;;;;;56.40;28.30;;;;;;;4.80;65.41;99323.41;107689;1282;22560;-75
2022/03/09 09:03:04;;;;;;;54.50;29.60;;;;;;;4.81;64.92;99320.42;107697;1282;24359;-75
2022/03/09 09:05:31;;;;;;;52.50;26.50;;;;;;;4.94;65.00;99323.49;107697;1282;23355;-73
2022/03/09 09:07:59;;;;;;;48.60;27.30;;;;;;;5.02;63.92;99323.91;107657;1282;22597;-75
2022/03/09 09:10:26;;;;;;;51.60;28.50;;;;;;;5.00;63.54;99325.41;107698;1282;22707;-75
2022/03/09 09:12:54;;;;;;;49.90;27.70;;;;;;;5.05;64.14;99324.00;108017;1282;22547;-78
2022/03/09 09:15:22;;;;;;;49.10;25.70;;;;;;;5.13;63.38;99323.20;107984;1282;22556;-75
2022/03/09 09:17:56;;;;;;;43.40;26.10;;;;;;;5.23;63.76;99322.40;108007;1282;22674;-76
2022/03/09 09:20:25;;;;;;;56.80;26.70;;;;;;;5.29;63.28;99322.02;108054;1281;22825;-76
2022/03/09 09:22:53;;;;;;;52.50;27.70;;;;;;;5.34;62.78;99319.96;107953;1282;22546;-74
2022/03/09 09:25:21;;;;;;;47.70;27.10;;;;;;;5.29;62.42;99322.00;107982;1282;22545;-73
2022/03/09 09:27:50;;;;;;;49.80;24.60;;;;;;;5.26;62.43;99321.41;107965;1282;22545;-74
2022/03/09 09:30:17;;;;;;;45.00;24.50;;;;;;;5.25;61.83;99320.40;107950;1282;22625;-74
2022/03/09 09:32:46;;;;;;;53.50;25.30;;;;;;;5.17;61.74;99321.38;107982;1282;24238;-74
2022/03/09 09:35:14;;;;;;;43.90;23.00;;;;;;;5.06;61.05;99322.40;107990;1282;22810;-75
2022/03/09 09:37:42;;;;;;;38.80;20.90;;;;;;;4.92;61.41;99319.21;108019;1282;22635;-79
2022/03/09 09:40:11;;;;;;;38.70;19.40;;;;;;;4.78;61.26;99317.25;108013;1282;22615;-74
2022/03/09 09:42:39;;;;;;;47.80;22.70;;;;;;;4.62;60.61;99320.84;107982;1282;23002;-74
2022/03/09 09:45:07;;;;;;;40.60;21.00;;;;;;;4.48;60.78;99319.88;108001;1282;22539;-74
2022/03/09 09:47:34;;;;;;;35.10;18.70;;;;;;;4.38;61.10;99316.40;107984;1282;22553;-75
2022/03/09 09:50:05;;;;;;;35.10;17.70;;;;;;;4.33;60.88;99317.38;107998;1282;22560;-73
2022/03/09 09:52:33;;;;;;;36.10;17.50;;;;;;;4.30;60.73;99315.93;107994;1282;22705;-73
2022/03/09 09:55:02;;;;;;;29.90;16.00;;;;;;;4.31;60.84;99313.84;107988;1282;23635;-82
2022/03/09 09:57:30;;;;;;;31.10;17.50;;;;;;;4.34;60.74;99309.60;107975;1282;22564;-74
2022/03/09 09:59:58;;;;;;;36.30;17.80;;;;;;;4.35;60.65;99309.58;107953;1282;25325;-75
2022/03/09 10:02:26;;;;;;;34.40;16.70;;;;;;;4.39;60.15;99307.57;107985;1282;22557;-74
2022/03/09 10:04:53;;;;;;;36.90;18.10;;;;;;;4.41;59.71;99306.97;107969;1282;22541;-75
2022/03/09 10:07:19;;;;;;;25.40;13.80;;;;;;;4.48;59.47;99302.29;107991;1282;23558;-76
2022/03/09 10:09:47;;;;;;;26.60;14.20;;;;;;;4.52;57.96;99300.95;107986;1282;22560;-80
2022/03/09 10:12:15;;;;;;;25.10;13.80;;;;;;;4.55;58.30;99299.15;108001;1282;26520;-75
2022/03/09 10:14:53;;;;;;;23.60;12.20;;;;;;;4.56;58.32;99304.14;107993;1282;22552;-76
2022/03/09 10:17:23;;;;;;;19.70;10.10;;;;;;;4.62;57.05;99304.31;107994;1282;25903;-76
2022/03/09 10:19:58;;;;;;;18.80;9.50;;;;;;;4.64;56.37;99296.83;107994;1282;22557;-76
2022/03/09 10:22:25;;;;;;;24.90;11.10;;;;;;;4.69;55.37;99296.48;108012;1282;22629;-76
2022/03/09 10:24:54;;;;;;;56.30;20.40;;;;;;;4.73;54.22;99295.15;107984;1282;22642;-76
2022/03/09 10:27:45;;;;;;;28.30;14.40;;;;;;;4.77;54.29;99297.61;107948;1282;22535;-76
2022/03/09 10:30:33;;;;;;;19.40;9.70;;;;;;;4.78;54.05;99294.46;107980;1282;22547;-75
2022/03/09 10:33:05;;;;;;;18.60;9.50;;;;;;;4.83;53.40;99288.45;108000;1282;22717;-76
2022/03/09 10:35:32;;;;;;;23.30;11.30;;;;;;;4.88;54.13;99287.43;108012;1282;22546;-75
2022/03/09 10:38:05;;;;;;;17.30;8.80;;;;;;;4.99;53.45;99284.14;108024;1282;22645;-75
2022/03/09 10:40:39;;;;;;;15.00;7.40;;;;;;;5.19;53.38;99282.44;107877;1281;22712;-80
2022/03/09 10:43:13;;;;;;;12.50;6.20;;;;;;;5.41;52.69;99283.42;107992;1282;24280;-74
2022/03/09 10:46:12;;;;;;;18.30;9.80;;;;;;;5.66;51.85;99285.86;107729;1282;22607;-74
2022/03/09 10:49:03;;;;;;;17.70;8.70;;;;;;;5.84;49.51;99283.48;107763;1282;22547;-74
2022/03/09 10:51:38;;;;;;;12.90;6.70;;;;;;;6.02;49.70;99279.42;107713;1282;23610;-74
2022/03/09 10:54:11;;;;;;;11.20;5.90;;;;;;;6.22;48.68;99277.82;107725;1282;22865;-75
2022/03/09 10:56:38;;;;;;;11.60;6.00;;;;;;;6.31;46.97;99284.20;107959;1281;22541;-76
2022/03/09 10:59:13;;;;;;;15.60;8.70;;;;;;;6.41;45.69;99284.85;107772;1282;22563;-73
2022/03/09 11:01:42;;;;;;;16.50;9.20;;;;;;;6.53;45.13;99279.36;107721;1282;22577;-76
2022/03/09 11:04:15;;;;;;;22.60;10.20;;;;;;;6.61;45.78;99282.88;107918;1282;22534;-74
2022/03/09 11:06:46;;;;;;;27.90;13.20;;;;;;;6.84;47.31;99284.59;107991;1282;22725;-75
2022/03/09 11:09:18;;;;;;;22.80;12.70;;;;;;;7.05;48.27;99280.60;107966;1282;23356;-76
2022/03/09 11:11:48;;;;;;;18.10;11.50;;;;;;;7.29;48.33;99282.94;107926;1282;22580;-81
2022/03/09 11:14:17;;;;;;;19.00;10.50;;;;;;;7.44;48.53;99285.05;107992;1282;22551;-74
2022/03/09 11:16:46;;;;;;;21.40;11.40;;;;;;;7.59;47.98;99285.08;107970;1282;27626;-74